JEREZ current weather conditions

sailwx.info

Wind from 100 at 3 knots

Air temperature 20.0° C
Dewpoint 11.0° C

Last reported at 2014-Oct-31 19:30 UTC.
Time now 2014-Nov-01 09:54 UTC

Location: N 36°45' W 006°04'.
View on Google Maps.

See reports from other nearby stations

  
Tides and Currents Weather Stations Pressure Air Temp Water Temp Dewpoint Dewpoint Depression Visibility Wind Speed Wind Dir Waves Ship Positions
date/time (UTC)wind fromknots sea level pressurealtimeterstation pressurevisibilityair tempwater tempwave heightnotes
2014-Oct-31 19:30 100 3 20.0
2014-Oct-31 19:00 20.0
2014-Oct-31 18:30 20.0
2014-Oct-31 18:00 150 3 21.0
2014-Oct-31 17:30 140 6 23.0
2014-Oct-31 17:00 140 9 24.0
2014-Oct-31 16:30 140 8 26.0
2014-Oct-31 16:00 120 8 27.0
2014-Oct-31 15:30 130 9 28.0
2014-Oct-31 15:00 140 8 28.0
2014-Oct-31 14:30 150 10 27.0
2014-Oct-31 14:00 150 9 28.0
2014-Oct-31 13:30 150 10 28.0
2014-Oct-31 13:00 150 10 28.0
2014-Oct-31 12:30 150 8 28.0
2014-Oct-31 12:00 28.0
2014-Oct-31 11:30 27.0
2014-Oct-31 11:00 26.0
2014-Oct-31 10:30 25.0
2014-Oct-31 10:00 300 6 25.0
2014-Oct-31 09:30 24.0
2014-Oct-31 09:00 310 3 22.0
2014-Oct-31 08:30 20.0
2014-Oct-31 08:00 290 3 18.0
2014-Oct-31 07:30 300 4 17.0
2014-Oct-31 07:00 17.0
2014-Oct-31 06:30 18.0
2014-Oct-31 06:00 17.0
2014-Oct-31 05:30 100 5 19.0
2014-Oct-31 05:00 110 3 18.0
2014-Oct-31 04:30 18.0
2014-Oct-31 04:00 080 4 19.0
2014-Oct-31 03:30 090 3 19.0
2014-Oct-31 03:00 090 8 20.0
2014-Oct-31 02:30 090 9 20.0
2014-Oct-30 22:00 100 7 22.0
2014-Oct-30 21:30 090 11 22.0
2014-Oct-30 21:00 100 10 22.0
2014-Oct-30 20:30 110 6 22.0
2014-Oct-30 20:00 100 10 23.0
2014-Oct-30 19:30 100 10 23.0
2014-Oct-30 19:00 100 13 gusting 23 23.0
2014-Oct-30 18:30 110 14 24.0
2014-Oct-30 18:00 120 14 24.0
2014-Oct-30 17:30 130 12 24.0
2014-Oct-30 17:00 120 11 26.0
2014-Oct-30 16:30 100 11 27.0
2014-Oct-30 16:00 100 11 27.0
2014-Oct-30 15:30 110 11 28.0
2014-Oct-30 15:00 100 9 29.0
2014-Oct-30 14:30 110 9 29.0
2014-Oct-30 14:00 100 11 29.0
2014-Oct-30 13:30 110 5 29.0
2014-Oct-30 13:00 090 8 29.0
2014-Oct-30 12:30 090 10 28.0
2014-Oct-30 12:00 090 11 28.0
2014-Oct-30 11:30 100 9 27.0
2014-Oct-30 11:00 26.0
2014-Oct-30 10:30 25.0
2014-Oct-30 10:00 300 3 23.0
2014-Oct-30 09:30 260 3 21.0
2014-Oct-30 09:00 20.0